sensor_id;sensor_type;location;lat;lon;timestamp;temperature;humidity
53146;DHT22;39042;53.150;5.898;2024-03-06T00:01:51;5.60;99.90
53146;DHT22;39042;53.150;5.898;2024-03-06T00:04:17;5.50;99.90
53146;DHT22;39042;53.150;5.898;2024-03-06T00:06:42;5.50;99.90
53146;DHT22;39042;53.150;5.898;2024-03-06T00:09:08;5.50;99.90
53146;DHT22;39042;53.150;5.898;2024-03-06T00:11:35;5.50;99.90
53146;DHT22;39042;53.150;5.898;2024-03-06T00:14:03;5.50;99.90
53146;DHT22;39042;53.150;5.898;2024-03-06T00:16:31;5.40;99.90
53146;DHT22;39042;53.150;5.898;2024-03-06T00:18:57;5.40;99.90
53146;DHT22;39042;53.150;5.898;2024-03-06T00:21:23;5.40;99.90
53146;DHT22;39042;53.150;5.898;2024-03-06T00:23:49;5.40;99.90
53146;DHT22;39042;53.150;5.898;2024-03-06T00:26:14;5.40;99.90
53146;DHT22;39042;53.150;5.898;2024-03-06T00:28:40;5.40;99.90
53146;DHT22;39042;53.150;5.898;2024-03-06T00:31:06;5.40;99.90
53146;DHT22;39042;53.150;5.898;2024-03-06T00:33:32;5.40;99.90
53146;DHT22;39042;53.150;5.898;2024-03-06T00:35:58;5.30;99.90
53146;DHT22;39042;53.150;5.898;2024-03-06T00:38:23;5.30;99.90
53146;DHT22;39042;53.150;5.898;2024-03-06T00:40:49;5.30;99.90
53146;DHT22;39042;53.150;5.898;2024-03-06T00:43:15;5.30;99.90
53146;DHT22;39042;53.150;5.898;2024-03-06T00:45:41;5.30;99.90
53146;DHT22;39042;53.150;5.898;2024-03-06T00:48:07;5.30;99.90
53146;DHT22;39042;53.150;5.898;2024-03-06T00:50:33;5.30;99.90
53146;DHT22;39042;53.150;5.898;2024-03-06T00:52:59;5.30;99.90
53146;DHT22;39042;53.150;5.898;2024-03-06T00:55:25;5.30;99.90
53146;DHT22;39042;53.150;5.898;2024-03-06T00:57:51;5.20;99.90
53146;DHT22;39042;53.150;5.898;2024-03-06T01:00:17;5.20;99.90
53146;DHT22;39042;53.150;5.898;2024-03-06T01:02:43;5.20;99.90
53146;DHT22;39042;53.150;5.898;2024-03-06T01:05:08;5.20;99.90
53146;DHT22;39042;53.150;5.898;2024-03-06T01:07:38;5.20;99.90
53146;DHT22;39042;53.150;5.898;2024-03-06T01:10:06;5.20;99.90
53146;DHT22;39042;53.150;5.898;2024-03-06T01:12:32;5.20;99.90
53146;DHT22;39042;53.150;5.898;2024-03-06T01:14:58;5.20;99.90
53146;DHT22;39042;53.150;5.898;2024-03-06T01:17:24;5.10;99.90
53146;DHT22;39042;53.150;5.898;2024-03-06T01:19:51;5.20;99.90
53146;DHT22;39042;53.150;5.898;2024-03-06T01:22:17;5.20;99.90
53146;DHT22;39042;53.150;5.898;2024-03-06T01:24:43;5.20;99.90
53146;DHT22;39042;53.150;5.898;2024-03-06T01:27:09;5.20;99.90
53146;DHT22;39042;53.150;5.898;2024-03-06T01:29:35;5.10;99.90
53146;DHT22;39042;53.150;5.898;2024-03-06T01:32:01;5.10;99.90
53146;DHT22;39042;53.150;5.898;2024-03-06T01:34:27;5.10;99.90
53146;DHT22;39042;53.150;5.898;2024-03-06T01:36:53;5.10;99.90
53146;DHT22;39042;53.150;5.898;2024-03-06T01:39:19;5.10;99.90
53146;DHT22;39042;53.150;5.898;2024-03-06T01:41:46;5.10;99.90
53146;DHT22;39042;53.150;5.898;2024-03-06T01:44:13;5.10;99.90
53146;DHT22;39042;53.150;5.898;2024-03-06T01:46:39;5.10;99.90
53146;DHT22;39042;53.150;5.898;2024-03-06T01:49:05;5.00;99.90
53146;DHT22;39042;53.150;5.898;2024-03-06T01:51:32;5.10;99.90
53146;DHT22;39042;53.150;5.898;2024-03-06T01:53:59;5.00;99.90
53146;DHT22;39042;53.150;5.898;2024-03-06T01:56:27;5.00;99.90
53146;DHT22;39042;53.150;5.898;2024-03-06T01:58:53;5.00;99.90
53146;DHT22;39042;53.150;5.898;2024-03-06T02:01:21;5.00;99.90
53146;DHT22;39042;53.150;5.898;2024-03-06T02:03:47;5.00;99.90
53146;DHT22;39042;53.150;5.898;2024-03-06T02:06:15;5.00;99.90
53146;DHT22;39042;53.150;5.898;2024-03-06T02:08:48;5.00;99.90
53146;DHT22;39042;53.150;5.898;2024-03-06T02:11:14;5.00;99.90
53146;DHT22;39042;53.150;5.898;2024-03-06T02:13:43;5.00;99.90
53146;DHT22;39042;53.150;5.898;2024-03-06T02:16:10;5.00;99.90
53146;DHT22;39042;53.150;5.898;2024-03-06T02:18:36;5.00;99.90
53146;DHT22;39042;53.150;5.898;2024-03-06T02:21:03;5.00;99.90
53146;DHT22;39042;53.150;5.898;2024-03-06T02:23:30;5.00;99.90
53146;DHT22;39042;53.150;5.898;2024-03-06T02:25:56;5.00;99.90
53146;DHT22;39042;53.150;5.898;2024-03-06T02:28:22;5.00;99.90
53146;DHT22;39042;53.150;5.898;2024-03-06T02:30:51;5.00;99.90
53146;DHT22;39042;53.150;5.898;2024-03-06T02:33:17;5.00;99.90
53146;DHT22;39042;53.150;5.898;2024-03-06T02:35:45;5.00;99.90
53146;DHT22;39042;53.150;5.898;2024-03-06T02:38:11;5.00;99.90
53146;DHT22;39042;53.150;5.898;2024-03-06T02:40:37;5.00;99.90
53146;DHT22;39042;53.150;5.898;2024-03-06T02:43:03;5.00;99.90
53146;DHT22;39042;53.150;5.898;2024-03-06T02:45:30;5.00;99.90
53146;DHT22;39042;53.150;5.898;2024-03-06T02:47:56;5.00;99.90
53146;DHT22;39042;53.150;5.898;2024-03-06T02:50:22;5.00;99.90
53146;DHT22;39042;53.150;5.898;2024-03-06T02:52:48;5.00;99.90
53146;DHT22;39042;53.150;5.898;2024-03-06T02:55:14;4.90;99.90
53146;DHT22;39042;53.150;5.898;2024-03-06T02:57:40;5.00;99.90
53146;DHT22;39042;53.150;5.898;2024-03-06T03:00:07;5.00;99.90
53146;DHT22;39042;53.150;5.898;2024-03-06T03:02:39;5.00;99.90
53146;DHT22;39042;53.150;5.898;2024-03-06T03:05:05;5.00;99.90
53146;DHT22;39042;53.150;5.898;2024-03-06T03:07:31;4.90;99.90
53146;DHT22;39042;53.150;5.898;2024-03-06T03:09:56;4.90;99.90
53146;DHT22;39042;53.150;5.898;2024-03-06T03:12:22;5.00;99.90
53146;DHT22;39042;53.150;5.898;2024-03-06T03:14:48;4.90;99.90
53146;DHT22;39042;53.150;5.898;2024-03-06T03:17:19;5.00;99.90
53146;DHT22;39042;53.150;5.898;2024-03-06T03:19:45;4.90;99.90
53146;DHT22;39042;53.150;5.898;2024-03-06T03:22:11;4.90;99.90
53146;DHT22;39042;53.150;5.898;2024-03-06T03:24:41;4.90;99.90
53146;DHT22;39042;53.150;5.898;2024-03-06T03:27:07;4.90;99.90
53146;DHT22;39042;53.150;5.898;2024-03-06T03:29:33;4.90;99.90
53146;DHT22;39042;53.150;5.898;2024-03-06T03:31:59;4.90;99.90
53146;DHT22;39042;53.150;5.898;2024-03-06T03:34:27;4.90;99.90
53146;DHT22;39042;53.150;5.898;2024-03-06T03:36:53;4.90;99.90
53146;DHT22;39042;53.150;5.898;2024-03-06T03:39:19;4.90;99.90
53146;DHT22;39042;53.150;5.898;2024-03-06T03:41:48;4.90;99.90
53146;DHT22;39042;53.150;5.898;2024-03-06T03:44:15;4.90;99.90
53146;DHT22;39042;53.150;5.898;2024-03-06T03:46:41;4.90;99.90
53146;DHT22;39042;53.150;5.898;2024-03-06T03:49:08;4.90;99.90
53146;DHT22;39042;53.150;5.898;2024-03-06T03:51:37;4.90;99.90
53146;DHT22;39042;53.150;5.898;2024-03-06T03:54:04;4.90;99.90
53146;DHT22;39042;53.150;5.898;2024-03-06T03:56:30;4.90;99.90
53146;DHT22;39042;53.150;5.898;2024-03-06T03:58:57;4.90;99.90
53146;DHT22;39042;53.150;5.898;2024-03-06T04:01:27;4.90;99.90
53146;DHT22;39042;53.150;5.898;2024-03-06T04:03:53;4.90;99.90
53146;DHT22;39042;53.150;5.898;2024-03-06T04:06:18;4.90;99.90
53146;DHT22;39042;53.150;5.898;2024-03-06T04:08:44;4.90;99.90
53146;DHT22;39042;53.150;5.898;2024-03-06T04:11:10;4.90;99.90
53146;DHT22;39042;53.150;5.898;2024-03-06T04:13:37;4.80;99.90
53146;DHT22;39042;53.150;5.898;2024-03-06T04:16:04;4.90;99.90
53146;DHT22;39042;53.150;5.898;2024-03-06T04:18:30;4.80;99.90
53146;DHT22;39042;53.150;5.898;2024-03-06T04:21:05;4.90;99.90
53146;DHT22;39042;53.150;5.898;2024-03-06T04:23:32;4.80;99.90
53146;DHT22;39042;53.150;5.898;2024-03-06T04:26:02;4.80;99.90
53146;DHT22;39042;53.150;5.898;2024-03-06T04:28:29;4.90;99.90
53146;DHT22;39042;53.150;5.898;2024-03-06T04:30:55;4.80;99.90
53146;DHT22;39042;53.150;5.898;2024-03-06T04:33:21;4.80;99.90
53146;DHT22;39042;53.150;5.898;2024-03-06T04:35:47;4.80;99.90
53146;DHT22;39042;53.150;5.898;2024-03-06T04:38:13;4.80;99.90
53146;DHT22;39042;53.150;5.898;2024-03-06T04:40:39;4.80;99.90
53146;DHT22;39042;53.150;5.898;2024-03-06T04:43:05;4.80;99.90
53146;DHT22;39042;53.150;5.898;2024-03-06T04:45:33;4.80;99.90
53146;DHT22;39042;53.150;5.898;2024-03-06T04:47:58;4.80;99.90
53146;DHT22;39042;53.150;5.898;2024-03-06T04:50:24;4.80;99.90
53146;DHT22;39042;53.150;5.898;2024-03-06T04:52:50;4.80;99.90
53146;DHT22;39042;53.150;5.898;2024-03-06T04:55:16;4.80;99.90
53146;DHT22;39042;53.150;5.898;2024-03-06T04:57:48;4.80;99.90
53146;DHT22;39042;53.150;5.898;2024-03-06T05:00:14;4.80;99.90
53146;DHT22;39042;53.150;5.898;2024-03-06T05:02:40;4.80;99.90
53146;DHT22;39042;53.150;5.898;2024-03-06T05:05:07;4.80;99.90
53146;DHT22;39042;53.150;5.898;2024-03-06T05:07:34;4.80;99.90
53146;DHT22;39042;53.150;5.898;2024-03-06T05:10:00;4.80;99.90
53146;DHT22;39042;53.150;5.898;2024-03-06T05:12:27;4.80;99.90
53146;DHT22;39042;53.150;5.898;2024-03-06T05:14:53;4.80;99.90
53146;DHT22;39042;53.150;5.898;2024-03-06T05:17:19;4.80;99.90
53146;DHT22;39042;53.150;5.898;2024-03-06T05:19:46;4.80;99.90
53146;DHT22;39042;53.150;5.898;2024-03-06T05:22:13;4.80;99.90
53146;DHT22;39042;53.150;5.898;2024-03-06T05:24:40;4.80;99.90
53146;DHT22;39042;53.150;5.898;2024-03-06T05:27:06;4.80;99.90
53146;DHT22;39042;53.150;5.898;2024-03-06T05:29:33;4.80;99.90
53146;DHT22;39042;53.150;5.898;2024-03-06T05:31:58;4.80;99.90
53146;DHT22;39042;53.150;5.898;2024-03-06T05:34:27;4.80;99.90
53146;DHT22;39042;53.150;5.898;2024-03-06T05:36:53;4.80;99.90
53146;DHT22;39042;53.150;5.898;2024-03-06T05:39:19;4.80;99.90
53146;DHT22;39042;53.150;5.898;2024-03-06T05:41:45;4.80;99.90
53146;DHT22;39042;53.150;5.898;2024-03-06T05:44:10;4.80;99.90
53146;DHT22;39042;53.150;5.898;2024-03-06T05:46:36;4.80;99.90
53146;DHT22;39042;53.150;5.898;2024-03-06T05:49:02;4.80;99.90
53146;DHT22;39042;53.150;5.898;2024-03-06T05:51:28;4.80;99.90
53146;DHT22;39042;53.150;5.898;2024-03-06T05:53:54;4.80;99.90
53146;DHT22;39042;53.150;5.898;2024-03-06T05:56:20;4.80;99.90
53146;DHT22;39042;53.150;5.898;2024-03-06T05:58:46;4.80;99.90
53146;DHT22;39042;53.150;5.898;2024-03-06T06:01:16;4.80;99.90
53146;DHT22;39042;53.150;5.898;2024-03-06T06:03:46;4.80;99.90
53146;DHT22;39042;53.150;5.898;2024-03-06T06:06:17;4.80;99.90
53146;DHT22;39042;53.150;5.898;2024-03-06T06:08:46;4.80;99.90
53146;DHT22;39042;53.150;5.898;2024-03-06T06:11:12;4.80;99.90
53146;DHT22;39042;53.150;5.898;2024-03-06T06:13:39;4.80;99.90
53146;DHT22;39042;53.150;5.898;2024-03-06T06:16:07;4.80;99.90
53146;DHT22;39042;53.150;5.898;2024-03-06T06:18:33;4.80;99.90
53146;DHT22;39042;53.150;5.898;2024-03-06T06:20:59;4.80;99.90
53146;DHT22;39042;53.150;5.898;2024-03-06T06:23:25;4.80;99.90
53146;DHT22;39042;53.150;5.898;2024-03-06T06:25:52;4.80;99.90
53146;DHT22;39042;53.150;5.898;2024-03-06T06:28:17;4.80;99.90
53146;DHT22;39042;53.150;5.898;2024-03-06T06:30:43;4.80;99.90
53146;DHT22;39042;53.150;5.898;2024-03-06T06:33:09;4.80;99.90
53146;DHT22;39042;53.150;5.898;2024-03-06T06:35:35;4.80;99.90
53146;DHT22;39042;53.150;5.898;2024-03-06T06:38:02;4.80;99.90
53146;DHT22;39042;53.150;5.898;2024-03-06T06:40:28;4.80;99.90
53146;DHT22;39042;53.150;5.898;2024-03-06T06:42:54;4.80;99.90
53146;DHT22;39042;53.150;5.898;2024-03-06T06:45:20;4.80;99.90
53146;DHT22;39042;53.150;5.898;2024-03-06T06:47:48;4.80;99.90
53146;DHT22;39042;53.150;5.898;2024-03-06T06:50:14;4.80;99.90
53146;DHT22;39042;53.150;5.898;2024-03-06T06:52:40;4.80;99.90
53146;DHT22;39042;53.150;5.898;2024-03-06T06:55:07;4.80;99.90
53146;DHT22;39042;53.150;5.898;2024-03-06T06:57:37;4.80;99.90
53146;DHT22;39042;53.150;5.898;2024-03-06T07:00:04;4.80;99.90
53146;DHT22;39042;53.150;5.898;2024-03-06T07:02:40;4.80;99.90
53146;DHT22;39042;53.150;5.898;2024-03-06T07:05:07;4.80;99.90
53146;DHT22;39042;53.150;5.898;2024-03-06T07:07:34;4.80;99.90
53146;DHT22;39042;53.150;5.898;2024-03-06T07:10:06;4.80;99.90
53146;DHT22;39042;53.150;5.898;2024-03-06T07:12:32;4.80;99.90
53146;DHT22;39042;53.150;5.898;2024-03-06T07:14:58;4.80;99.90
53146;DHT22;39042;53.150;5.898;2024-03-06T07:17:33;4.90;99.90
53146;DHT22;39042;53.150;5.898;2024-03-06T07:20:01;4.80;99.90
53146;DHT22;39042;53.150;5.898;2024-03-06T07:22:27;4.80;99.90
53146;DHT22;39042;53.150;5.898;2024-03-06T07:24:53;4.80;99.90
53146;DHT22;39042;53.150;5.898;2024-03-06T07:27:19;4.80;99.90
53146;DHT22;39042;53.150;5.898;2024-03-06T07:29:45;4.90;99.90
53146;DHT22;39042;53.150;5.898;2024-03-06T07:32:11;4.90;99.90
53146;DHT22;39042;53.150;5.898;2024-03-06T07:34:37;4.90;99.90
53146;DHT22;39042;53.150;5.898;2024-03-06T07:37:06;4.90;99.90
53146;DHT22;39042;53.150;5.898;2024-03-06T07:39:32;4.90;99.90
53146;DHT22;39042;53.150;5.898;2024-03-06T07:41:58;4.90;99.90
53146;DHT22;39042;53.150;5.898;2024-03-06T07:44:24;4.90;99.90
53146;DHT22;39042;53.150;5.898;2024-03-06T07:46:49;4.90;99.90
53146;DHT22;39042;53.150;5.898;2024-03-06T07:49:15;4.90;99.90
53146;DHT22;39042;53.150;5.898;2024-03-06T07:51:41;4.90;99.90
53146;DHT22;39042;53.150;5.898;2024-03-06T07:54:07;5.00;99.90
53146;DHT22;39042;53.150;5.898;2024-03-06T07:56:33;5.00;99.90
53146;DHT22;39042;53.150;5.898;2024-03-06T07:59:01;5.00;99.90
53146;DHT22;39042;53.150;5.898;2024-03-06T08:01:27;5.00;99.90
53146;DHT22;39042;53.150;5.898;2024-03-06T08:03:54;5.10;99.90
53146;DHT22;39042;53.150;5.898;2024-03-06T08:06:21;5.10;99.90
53146;DHT22;39042;53.150;5.898;2024-03-06T08:08:47;5.10;99.90
53146;DHT22;39042;53.150;5.898;2024-03-06T08:11:16;5.10;99.90
53146;DHT22;39042;53.150;5.898;2024-03-06T08:13:43;5.10;99.90
53146;DHT22;39042;53.150;5.898;2024-03-06T08:16:09;5.10;99.90
53146;DHT22;39042;53.150;5.898;2024-03-06T08:18:36;5.10;99.90
53146;DHT22;39042;53.150;5.898;2024-03-06T08:21:03;5.10;99.90
53146;DHT22;39042;53.150;5.898;2024-03-06T08:23:31;5.10;99.90
53146;DHT22;39042;53.150;5.898;2024-03-06T08:25:57;5.20;99.90
53146;DHT22;39042;53.150;5.898;2024-03-06T08:28:23;5.10;99.90
53146;DHT22;39042;53.150;5.898;2024-03-06T08:30:49;5.20;99.90
53146;DHT22;39042;53.150;5.898;2024-03-06T08:33:15;5.10;99.90
53146;DHT22;39042;53.150;5.898;2024-03-06T08:35:41;5.20;99.90
53146;DHT22;39042;53.150;5.898;2024-03-06T08:38:07;5.20;99.90
53146;DHT22;39042;53.150;5.898;2024-03-06T08:40:34;5.20;99.90
53146;DHT22;39042;53.150;5.898;2024-03-06T08:43:00;5.20;99.90
53146;DHT22;39042;53.150;5.898;2024-03-06T08:45:26;5.20;99.90
53146;DHT22;39042;53.150;5.898;2024-03-06T08:47:52;5.20;99.90
53146;DHT22;39042;53.150;5.898;2024-03-06T08:50:19;5.20;99.90
53146;DHT22;39042;53.150;5.898;2024-03-06T08:52:46;5.20;99.90
53146;DHT22;39042;53.150;5.898;2024-03-06T08:55:12;5.30;99.90
53146;DHT22;39042;53.150;5.898;2024-03-06T08:57:38;5.30;99.90
53146;DHT22;39042;53.150;5.898;2024-03-06T09:00:05;5.30;99.90
53146;DHT22;39042;53.150;5.898;2024-03-06T09:02:38;5.30;99.90
53146;DHT22;39042;53.150;5.898;2024-03-06T09:05:07;5.30;99.90
53146;DHT22;39042;53.150;5.898;2024-03-06T09:07:36;5.40;99.90
53146;DHT22;39042;53.150;5.898;2024-03-06T09:10:07;5.40;99.90
53146;DHT22;39042;53.150;5.898;2024-03-06T09:12:34;5.50;99.90
53146;DHT22;39042;53.150;5.898;2024-03-06T09:15:03;5.50;99.90
53146;DHT22;39042;53.150;5.898;2024-03-06T09:17:29;5.50;99.90
53146;DHT22;39042;53.150;5.898;2024-03-06T09:19:56;5.50;99.90
53146;DHT22;39042;53.150;5.898;2024-03-06T09:22:24;5.50;99.90
53146;DHT22;39042;53.150;5.898;2024-03-06T09:24:50;5.60;99.90
53146;DHT22;39042;53.150;5.898;2024-03-06T09:27:16;5.60;99.90
53146;DHT22;39042;53.150;5.898;2024-03-06T09:29:43;5.60;99.90
53146;DHT22;39042;53.150;5.898;2024-03-06T09:32:08;5.70;99.90
53146;DHT22;39042;53.150;5.898;2024-03-06T09:34:34;5.70;99.90
53146;DHT22;39042;53.150;5.898;2024-03-06T09:37:00;5.70;99.90
53146;DHT22;39042;53.150;5.898;2024-03-06T09:39:26;5.80;99.90
53146;DHT22;39042;53.150;5.898;2024-03-06T09:41:53;5.80;99.90
53146;DHT22;39042;53.150;5.898;2024-03-06T09:44:29;5.80;99.90
53146;DHT22;39042;53.150;5.898;2024-03-06T09:46:59;5.90;99.90
53146;DHT22;39042;53.150;5.898;2024-03-06T09:49:27;5.90;99.90
53146;DHT22;39042;53.150;5.898;2024-03-06T09:51:53;5.90;99.90
53146;DHT22;39042;53.150;5.898;2024-03-06T09:54:23;5.90;99.90
53146;DHT22;39042;53.150;5.898;2024-03-06T09:56:51;5.90;99.90
53146;DHT22;39042;53.150;5.898;2024-03-06T09:59:18;6.00;99.90
53146;DHT22;39042;53.150;5.898;2024-03-06T10:01:52;6.00;99.90
53146;DHT22;39042;53.150;5.898;2024-03-06T10:04:22;6.00;99.90
53146;DHT22;39042;53.150;5.898;2024-03-06T10:06:51;6.00;99.90
53146;DHT22;39042;53.150;5.898;2024-03-06T10:09:21;6.10;99.90
53146;DHT22;39042;53.150;5.898;2024-03-06T10:11:47;6.00;99.90
53146;DHT22;39042;53.150;5.898;2024-03-06T10:14:13;6.00;99.90
53146;DHT22;39042;53.150;5.898;2024-03-06T10:17:01;6.00;99.90
53146;DHT22;39042;53.150;5.898;2024-03-06T10:19:28;6.10;99.90
53146;DHT22;39042;53.150;5.898;2024-03-06T10:21:56;6.10;99.90
53146;DHT22;39042;53.150;5.898;2024-03-06T10:24:24;6.00;99.90
53146;DHT22;39042;53.150;5.898;2024-03-06T10:26:55;6.00;99.90
53146;DHT22;39042;53.150;5.898;2024-03-06T10:29:25;6.10;99.90
53146;DHT22;39042;53.150;5.898;2024-03-06T10:31:53;6.10;99.90
53146;DHT22;39042;53.150;5.898;2024-03-06T10:34:21;6.10;99.90
53146;DHT22;39042;53.150;5.898;2024-03-06T10:37:00;6.10;99.90
53146;DHT22;39042;53.150;5.898;2024-03-06T10:39:27;6.10;99.90
53146;DHT22;39042;53.150;5.898;2024-03-06T10:41:56;6.10;99.90
53146;DHT22;39042;53.150;5.898;2024-03-06T10:44:26;6.10;99.90
53146;DHT22;39042;53.150;5.898;2024-03-06T10:46:58;6.10;99.90
53146;DHT22;39042;53.150;5.898;2024-03-06T10:49:26;6.10;99.90
53146;DHT22;39042;53.150;5.898;2024-03-06T10:52:04;6.10;99.90
53146;DHT22;39042;53.150;5.898;2024-03-06T10:54:33;6.20;99.90
53146;DHT22;39042;53.150;5.898;2024-03-06T10:57:04;6.20;99.90
53146;DHT22;39042;53.150;5.898;2024-03-06T10:59:31;6.20;99.90
53146;DHT22;39042;53.150;5.898;2024-03-06T11:01:58;6.30;99.90
53146;DHT22;39042;53.150;5.898;2024-03-06T11:04:29;6.30;99.90
53146;DHT22;39042;53.150;5.898;2024-03-06T11:06:59;6.30;99.90
53146;DHT22;39042;53.150;5.898;2024-03-06T11:09:35;6.30;99.90
53146;DHT22;39042;53.150;5.898;2024-03-06T11:12:02;6.30;99.90
53146;DHT22;39042;53.150;5.898;2024-03-06T11:14:31;6.30;99.90
53146;DHT22;39042;53.150;5.898;2024-03-06T11:17:10;6.40;99.90
53146;DHT22;39042;53.150;5.898;2024-03-06T11:30:47;6.50;99.90
53146;DHT22;39042;53.150;5.898;2024-03-06T11:33:17;6.60;99.90
53146;DHT22;39042;53.150;5.898;2024-03-06T11:35:43;6.60;99.90
53146;DHT22;39042;53.150;5.898;2024-03-06T11:38:29;6.60;99.90
53146;DHT22;39042;53.150;5.898;2024-03-06T11:40:55;6.70;99.90
53146;DHT22;39042;53.150;5.898;2024-03-06T11:43:25;6.70;99.90
53146;DHT22;39042;53.150;5.898;2024-03-06T11:45:52;6.80;99.90
53146;DHT22;39042;53.150;5.898;2024-03-06T11:48:18;6.80;99.90
53146;DHT22;39042;53.150;5.898;2024-03-06T11:50:47;6.90;99.90
53146;DHT22;39042;53.150;5.898;2024-03-06T11:53:14;6.90;99.90
53146;DHT22;39042;53.150;5.898;2024-03-06T11:55:40;7.00;99.90
53146;DHT22;39042;53.150;5.898;2024-03-06T11:58:06;7.00;99.90
53146;DHT22;39042;53.150;5.898;2024-03-06T12:00:33;7.10;99.90
53146;DHT22;39042;53.150;5.898;2024-03-06T12:02:59;7.10;99.90
53146;DHT22;39042;53.150;5.898;2024-03-06T12:05:25;7.10;99.90
53146;DHT22;39042;53.150;5.898;2024-03-06T12:07:53;7.10;99.90
53146;DHT22;39042;53.150;5.898;2024-03-06T12:10:20;7.00;99.90
53146;DHT22;39042;53.150;5.898;2024-03-06T12:12:46;7.00;99.90
53146;DHT22;39042;53.150;5.898;2024-03-06T12:15:14;7.00;99.90
53146;DHT22;39042;53.150;5.898;2024-03-06T12:17:49;7.10;99.90
53146;DHT22;39042;53.150;5.898;2024-03-06T12:20:17;7.10;99.90
53146;DHT22;39042;53.150;5.898;2024-03-06T12:22:44;7.20;99.90
53146;DHT22;39042;53.150;5.898;2024-03-06T12:25:10;7.10;99.90
53146;DHT22;39042;53.150;5.898;2024-03-06T12:27:36;7.10;99.90
53146;DHT22;39042;53.150;5.898;2024-03-06T12:30:03;7.10;99.90
53146;DHT22;39042;53.150;5.898;2024-03-06T12:32:33;7.10;99.90
53146;DHT22;39042;53.150;5.898;2024-03-06T12:34:59;7.20;99.90
53146;DHT22;39042;53.150;5.898;2024-03-06T12:37:32;7.20;99.90
53146;DHT22;39042;53.150;5.898;2024-03-06T12:39:58;7.20;99.90
53146;DHT22;39042;53.150;5.898;2024-03-06T12:42:24;7.20;99.90
53146;DHT22;39042;53.150;5.898;2024-03-06T12:44:50;7.20;99.90
53146;DHT22;39042;53.150;5.898;2024-03-06T12:47:16;7.30;99.90
53146;DHT22;39042;53.150;5.898;2024-03-06T12:49:41;7.30;99.90
53146;DHT22;39042;53.150;5.898;2024-03-06T12:52:07;7.30;99.90
53146;DHT22;39042;53.150;5.898;2024-03-06T12:54:34;7.40;99.90
53146;DHT22;39042;53.150;5.898;2024-03-06T12:57:00;7.40;99.90
53146;DHT22;39042;53.150;5.898;2024-03-06T12:59:26;7.40;99.90
53146;DHT22;39042;53.150;5.898;2024-03-06T13:01:51;7.50;99.90
53146;DHT22;39042;53.150;5.898;2024-03-06T13:04:18;7.50;99.90
53146;DHT22;39042;53.150;5.898;2024-03-06T13:06:44;7.60;99.90
53146;DHT22;39042;53.150;5.898;2024-03-06T13:09:11;7.60;99.90
53146;DHT22;39042;53.150;5.898;2024-03-06T13:11:36;7.60;99.90
53146;DHT22;39042;53.150;5.898;2024-03-06T13:14:02;7.70;99.90
53146;DHT22;39042;53.150;5.898;2024-03-06T13:16:28;7.70;99.90
53146;DHT22;39042;53.150;5.898;2024-03-06T13:18:54;7.70;99.90
53146;DHT22;39042;53.150;5.898;2024-03-06T13:21:22;7.70;99.90
53146;DHT22;39042;53.150;5.898;2024-03-06T13:23:49;7.70;99.90
53146;DHT22;39042;53.150;5.898;2024-03-06T13:26:15;7.80;99.90
53146;DHT22;39042;53.150;5.898;2024-03-06T13:28:41;7.80;99.90
53146;DHT22;39042;53.150;5.898;2024-03-06T13:31:07;7.80;99.90
53146;DHT22;39042;53.150;5.898;2024-03-06T13:33:33;7.90;99.90
53146;DHT22;39042;53.150;5.898;2024-03-06T13:35:59;7.90;99.90
53146;DHT22;39042;53.150;5.898;2024-03-06T13:38:25;7.90;99.90
53146;DHT22;39042;53.150;5.898;2024-03-06T13:40:51;8.00;99.90
53146;DHT22;39042;53.150;5.898;2024-03-06T13:43:16;7.90;99.90
53146;DHT22;39042;53.150;5.898;2024-03-06T13:45:51;8.00;99.90
53146;DHT22;39042;53.150;5.898;2024-03-06T13:48:18;8.10;99.90
53146;DHT22;39042;53.150;5.898;2024-03-06T13:50:44;8.10;99.90
53146;DHT22;39042;53.150;5.898;2024-03-06T13:53:11;8.10;99.90
53146;DHT22;39042;53.150;5.898;2024-03-06T13:55:37;8.00;99.90
53146;DHT22;39042;53.150;5.898;2024-03-06T13:58:03;8.10;99.90
53146;DHT22;39042;53.150;5.898;2024-03-06T14:00:29;8.10;99.90
53146;DHT22;39042;53.150;5.898;2024-03-06T14:02:55;8.10;99.90
53146;DHT22;39042;53.150;5.898;2024-03-06T14:05:22;8.10;99.90
53146;DHT22;39042;53.150;5.898;2024-03-06T14:07:54;8.10;99.90
53146;DHT22;39042;53.150;5.898;2024-03-06T14:10:21;8.10;99.90
53146;DHT22;39042;53.150;5.898;2024-03-06T14:12:48;8.20;99.90
53146;DHT22;39042;53.150;5.898;2024-03-06T14:15:18;8.20;99.90
53146;DHT22;39042;53.150;5.898;2024-03-06T14:17:44;8.30;99.90
53146;DHT22;39042;53.150;5.898;2024-03-06T14:20:11;8.30;99.90
53146;DHT22;39042;53.150;5.898;2024-03-06T14:22:41;8.40;99.90
53146;DHT22;39042;53.150;5.898;2024-03-06T14:25:08;8.40;99.90
53146;DHT22;39042;53.150;5.898;2024-03-06T14:27:33;8.50;99.90
53146;DHT22;39042;53.150;5.898;2024-03-06T14:30:01;8.50;99.90
53146;DHT22;39042;53.150;5.898;2024-03-06T14:32:28;8.50;99.90
53146;DHT22;39042;53.150;5.898;2024-03-06T14:34:53;8.60;99.90
53146;DHT22;39042;53.150;5.898;2024-03-06T14:37:19;8.70;99.90
53146;DHT22;39042;53.150;5.898;2024-03-06T14:39:45;8.80;99.90
53146;DHT22;39042;53.150;5.898;2024-03-06T14:42:12;8.80;99.90
53146;DHT22;39042;53.150;5.898;2024-03-06T14:44:37;8.90;99.90
53146;DHT22;39042;53.150;5.898;2024-03-06T14:47:03;9.00;99.90
53146;DHT22;39042;53.150;5.898;2024-03-06T14:49:31;9.00;99.90
53146;DHT22;39042;53.150;5.898;2024-03-06T14:51:57;9.10;99.90
53146;DHT22;39042;53.150;5.898;2024-03-06T14:54:23;9.10;99.90
53146;DHT22;39042;53.150;5.898;2024-03-06T14:56:52;9.10;99.90
53146;DHT22;39042;53.150;5.898;2024-03-06T14:59:18;9.10;99.90
53146;DHT22;39042;53.150;5.898;2024-03-06T15:01:44;9.10;99.90
53146;DHT22;39042;53.150;5.898;2024-03-06T15:04:10;9.00;99.90
53146;DHT22;39042;53.150;5.898;2024-03-06T15:06:39;9.10;99.90
53146;DHT22;39042;53.150;5.898;2024-03-06T15:09:05;9.10;99.90
53146;DHT22;39042;53.150;5.898;2024-03-06T15:11:31;9.20;99.90
53146;DHT22;39042;53.150;5.898;2024-03-06T15:14:01;9.20;99.90
53146;DHT22;39042;53.150;5.898;2024-03-06T15:16:27;9.30;99.90
53146;DHT22;39042;53.150;5.898;2024-03-06T15:18:54;9.30;99.90
53146;DHT22;39042;53.150;5.898;2024-03-06T15:21:25;9.20;99.90
53146;DHT22;39042;53.150;5.898;2024-03-06T15:23:51;9.20;99.90
53146;DHT22;39042;53.150;5.898;2024-03-06T15:26:18;9.20;99.90
53146;DHT22;39042;53.150;5.898;2024-03-06T15:28:44;9.20;99.90
53146;DHT22;39042;53.150;5.898;2024-03-06T15:31:11;9.10;99.90
53146;DHT22;39042;53.150;5.898;2024-03-06T15:33:36;9.10;99.90
53146;DHT22;39042;53.150;5.898;2024-03-06T15:36:02;9.10;99.90
53146;DHT22;39042;53.150;5.898;2024-03-06T15:38:28;9.00;99.90
53146;DHT22;39042;53.150;5.898;2024-03-06T15:40:54;9.00;99.90
53146;DHT22;39042;53.150;5.898;2024-03-06T15:43:20;9.00;99.90
53146;DHT22;39042;53.150;5.898;2024-03-06T15:45:47;9.00;99.90
53146;DHT22;39042;53.150;5.898;2024-03-06T15:48:13;9.00;99.90
53146;DHT22;39042;53.150;5.898;2024-03-06T15:50:41;9.00;99.90
53146;DHT22;39042;53.150;5.898;2024-03-06T15:53:07;9.00;99.90
53146;DHT22;39042;53.150;5.898;2024-03-06T15:55:34;9.00;99.90